Terminal Aerodrome Forecast
Issued by NWS Wichita, KS

Home | Current Version | Previous Version | Graphics & Text | Print | Product List | Glossary On
Versions: 1 2 3 4 5 6 7 8 9 10 11 12 13 14 15 16 17 18 19 20 21 22
171
FTUS43 KICT 231411 AAB
TAFICT
TAF AMD
KICT 231411Z 2314/2412 16020G30KT P6SM SCT020 BKN035
      TEMPO 2314/2318 BKN016
     FM231800 17026G35KT P6SM SCT035=

USA.gov is the U.S. government's official web portal to all federal, state and local government web resources and services.